sensor_id;sensor_type;location;lat;lon;timestamp;P1;durP1;ratioP1;P2;durP2;ratioP2
11197;SDS011;5655;48.744;9.162;2022-07-29T00:01:45;10.23;;;7.03;;
11197;SDS011;5655;48.744;9.162;2022-07-29T00:04:11;7.07;;;6.38;;
11197;SDS011;5655;48.744;9.162;2022-07-29T00:06:37;8.88;;;6.18;;
11197;SDS011;5655;48.744;9.162;2022-07-29T00:09:02;7.97;;;6.35;;
11197;SDS011;5655;48.744;9.162;2022-07-29T00:11:27;9.25;;;6.88;;
11197;SDS011;5655;48.744;9.162;2022-07-29T00:13:53;10.52;;;6.95;;
11197;SDS011;5655;48.744;9.162;2022-07-29T00:16:18;7.53;;;6.72;;
11197;SDS011;5655;48.744;9.162;2022-07-29T00:18:43;7.90;;;7.15;;
11197;SDS011;5655;48.744;9.162;2022-07-29T00:21:09;9.75;;;6.45;;
11197;SDS011;5655;48.744;9.162;2022-07-29T00:23:34;7.20;;;6.30;;
11197;SDS011;5655;48.744;9.162;2022-07-29T00:25:59;8.52;;;6.80;;
11197;SDS011;5655;48.744;9.162;2022-07-29T00:28:25;8.10;;;6.50;;
11197;SDS011;5655;48.744;9.162;2022-07-29T00:30:50;7.10;;;6.13;;
11197;SDS011;5655;48.744;9.162;2022-07-29T00:33:15;8.65;;;6.65;;
11197;SDS011;5655;48.744;9.162;2022-07-29T00:35:41;7.22;;;6.07;;
11197;SDS011;5655;48.744;9.162;2022-07-29T00:38:13;7.82;;;7.03;;
11197;SDS011;5655;48.744;9.162;2022-07-29T00:40:39;7.03;;;6.43;;
11197;SDS011;5655;48.744;9.162;2022-07-29T00:43:05;7.07;;;6.38;;
11197;SDS011;5655;48.744;9.162;2022-07-29T00:45:31;7.05;;;6.35;;
11197;SDS011;5655;48.744;9.162;2022-07-29T00:47:57;6.53;;;5.85;;
11197;SDS011;5655;48.744;9.162;2022-07-29T00:50:22;9.23;;;6.97;;
11197;SDS011;5655;48.744;9.162;2022-07-29T00:52:48;7.25;;;6.63;;
11197;SDS011;5655;48.744;9.162;2022-07-29T00:55:14;6.70;;;6.10;;
11197;SDS011;5655;48.744;9.162;2022-07-29T00:57:41;7.78;;;6.43;;
11197;SDS011;5655;48.744;9.162;2022-07-29T01:00:09;7.50;;;6.00;;
11197;SDS011;5655;48.744;9.162;2022-07-29T01:02:38;6.28;;;5.68;;
11197;SDS011;5655;48.744;9.162;2022-07-29T01:05:03;7.90;;;6.10;;
11197;SDS011;5655;48.744;9.162;2022-07-29T01:07:30;6.68;;;6.05;;
11197;SDS011;5655;48.744;9.162;2022-07-29T01:09:58;10.40;;;6.60;;
11197;SDS011;5655;48.744;9.162;2022-07-29T01:12:26;7.13;;;5.90;;
11197;SDS011;5655;48.744;9.162;2022-07-29T01:14:53;6.35;;;5.32;;
11197;SDS011;5655;48.744;9.162;2022-07-29T01:17:21;6.40;;;5.63;;
11197;SDS011;5655;48.744;9.162;2022-07-29T01:31:14;9.48;;;5.25;;
11197;SDS011;5655;48.744;9.162;2022-07-29T01:33:45;9.00;;;5.97;;
11197;SDS011;5655;48.744;9.162;2022-07-29T01:36:23;7.43;;;5.95;;
11197;SDS011;5655;48.744;9.162;2022-07-29T01:38:58;8.35;;;5.82;;
11197;SDS011;5655;48.744;9.162;2022-07-29T01:41:29;6.60;;;5.40;;
11197;SDS011;5655;48.744;9.162;2022-07-29T01:43:59;5.65;;;5.03;;
11197;SDS011;5655;48.744;9.162;2022-07-29T01:46:33;6.80;;;5.20;;
11197;SDS011;5655;48.744;9.162;2022-07-29T01:49:11;5.72;;;5.22;;
11197;SDS011;5655;48.744;9.162;2022-07-29T01:52:00;5.78;;;5.28;;
11197;SDS011;5655;48.744;9.162;2022-07-29T01:54:32;7.18;;;5.82;;
11197;SDS011;5655;48.744;9.162;2022-07-29T01:57:03;5.75;;;5.25;;
11197;SDS011;5655;48.744;9.162;2022-07-29T01:59:33;5.97;;;5.38;;
11197;SDS011;5655;48.744;9.162;2022-07-29T02:01:59;7.28;;;5.45;;
11197;SDS011;5655;48.744;9.162;2022-07-29T02:04:26;6.70;;;5.85;;
11197;SDS011;5655;48.744;9.162;2022-07-29T02:06:54;6.18;;;5.60;;
11197;SDS011;5655;48.744;9.162;2022-07-29T02:09:23;6.72;;;5.25;;
11197;SDS011;5655;48.744;9.162;2022-07-29T02:11:51;5.50;;;5.00;;
11197;SDS011;5655;48.744;9.162;2022-07-29T02:14:18;6.05;;;5.32;;
11197;SDS011;5655;48.744;9.162;2022-07-29T02:16:47;7.47;;;5.97;;
11197;SDS011;5655;48.744;9.162;2022-07-29T02:19:13;6.13;;;5.40;;
11197;SDS011;5655;48.744;9.162;2022-07-29T02:21:40;5.40;;;4.90;;
11197;SDS011;5655;48.744;9.162;2022-07-29T02:24:08;6.35;;;5.35;;
11197;SDS011;5655;48.744;9.162;2022-07-29T02:26:36;5.65;;;5.15;;
11197;SDS011;5655;48.744;9.162;2022-07-29T02:29:04;5.93;;;5.43;;
11197;SDS011;5655;48.744;9.162;2022-07-29T02:31:32;6.53;;;5.10;;
11197;SDS011;5655;48.744;9.162;2022-07-29T02:33:59;6.57;;;5.22;;
11197;SDS011;5655;48.744;9.162;2022-07-29T02:36:28;4.93;;;4.47;;
11197;SDS011;5655;48.744;9.162;2022-07-29T02:38:55;5.13;;;4.63;;
11197;SDS011;5655;48.744;9.162;2022-07-29T02:44:17;5.40;;;4.82;;
11197;SDS011;5655;48.744;9.162;2022-07-29T02:47:02;5.78;;;4.40;;
11197;SDS011;5655;48.744;9.162;2022-07-29T02:54:58;5.22;;;4.70;;
11197;SDS011;5655;48.744;9.162;2022-07-29T02:57:37;5.80;;;5.05;;
11197;SDS011;5655;48.744;9.162;2022-07-29T03:00:08;5.70;;;5.10;;
11197;SDS011;5655;48.744;9.162;2022-07-29T03:02:38;5.30;;;4.53;;
11197;SDS011;5655;48.744;9.162;2022-07-29T03:05:08;5.95;;;4.63;;
11197;SDS011;5655;48.744;9.162;2022-07-29T03:07:35;4.63;;;4.22;;
11197;SDS011;5655;48.744;9.162;2022-07-29T03:10:02;5.20;;;4.70;;
11197;SDS011;5655;48.744;9.162;2022-07-29T03:12:32;4.70;;;4.30;;
11197;SDS011;5655;48.744;9.162;2022-07-29T03:14:58;5.40;;;4.90;;
11197;SDS011;5655;48.744;9.162;2022-07-29T03:17:25;5.78;;;5.10;;
11197;SDS011;5655;48.744;9.162;2022-07-29T03:19:51;7.32;;;4.80;;
11197;SDS011;5655;48.744;9.162;2022-07-29T03:22:16;4.32;;;4.03;;
11197;SDS011;5655;48.744;9.162;2022-07-29T03:24:42;4.65;;;4.25;;
11197;SDS011;5655;48.744;9.162;2022-07-29T03:27:07;5.07;;;4.18;;
11197;SDS011;5655;48.744;9.162;2022-07-29T03:29:33;5.47;;;4.47;;
11197;SDS011;5655;48.744;9.162;2022-07-29T03:31:58;6.75;;;4.90;;
11197;SDS011;5655;48.744;9.162;2022-07-29T03:34:23;4.95;;;4.00;;
11197;SDS011;5655;48.744;9.162;2022-07-29T03:36:49;5.43;;;4.53;;
11197;SDS011;5655;48.744;9.162;2022-07-29T03:39:15;5.00;;;4.50;;
11197;SDS011;5655;48.744;9.162;2022-07-29T03:41:44;5.95;;;4.80;;
11197;SDS011;5655;48.744;9.162;2022-07-29T03:44:12;4.68;;;4.25;;
11197;SDS011;5655;48.744;9.162;2022-07-29T03:46:40;4.95;;;4.45;;
11197;SDS011;5655;48.744;9.162;2022-07-29T03:49:08;5.25;;;4.75;;
11197;SDS011;5655;48.744;9.162;2022-07-29T03:51:36;7.15;;;4.90;;
11197;SDS011;5655;48.744;9.162;2022-07-29T03:54:02;6.47;;;5.70;;
11197;SDS011;5655;48.744;9.162;2022-07-29T03:56:28;5.97;;;4.93;;
11197;SDS011;5655;48.744;9.162;2022-07-29T03:58:56;6.60;;;5.25;;
11197;SDS011;5655;48.744;9.162;2022-07-29T04:01:23;6.18;;;5.00;;
11197;SDS011;5655;48.744;9.162;2022-07-29T04:03:49;5.45;;;4.95;;
11197;SDS011;5655;48.744;9.162;2022-07-29T04:06:15;7.57;;;5.20;;
11197;SDS011;5655;48.744;9.162;2022-07-29T04:08:41;5.30;;;4.80;;
11197;SDS011;5655;48.744;9.162;2022-07-29T04:11:06;7.55;;;5.40;;
11197;SDS011;5655;48.744;9.162;2022-07-29T04:13:32;5.38;;;4.93;;
11197;SDS011;5655;48.744;9.162;2022-07-29T04:15:58;5.32;;;4.75;;
11197;SDS011;5655;48.744;9.162;2022-07-29T04:18:23;5.30;;;4.80;;
11197;SDS011;5655;48.744;9.162;2022-07-29T04:20:49;5.57;;;4.82;;
11197;SDS011;5655;48.744;9.162;2022-07-29T04:23:14;4.82;;;4.38;;
11197;SDS011;5655;48.744;9.162;2022-07-29T04:25:40;9.82;;;5.25;;
11197;SDS011;5655;48.744;9.162;2022-07-29T04:28:06;8.27;;;5.13;;
11197;SDS011;5655;48.744;9.162;2022-07-29T04:30:33;5.88;;;5.32;;
11197;SDS011;5655;48.744;9.162;2022-07-29T04:32:59;5.63;;;5.10;;
11197;SDS011;5655;48.744;9.162;2022-07-29T04:35:29;5.53;;;5.03;;
11197;SDS011;5655;48.744;9.162;2022-07-29T04:37:56;5.30;;;4.80;;
11197;SDS011;5655;48.744;9.162;2022-07-29T04:40:21;5.10;;;4.63;;
11197;SDS011;5655;48.744;9.162;2022-07-29T04:42:47;5.07;;;4.05;;
11197;SDS011;5655;48.744;9.162;2022-07-29T04:45:12;4.90;;;4.40;;
11197;SDS011;5655;48.744;9.162;2022-07-29T04:47:37;4.88;;;4.00;;
11197;SDS011;5655;48.744;9.162;2022-07-29T04:50:03;4.55;;;4.15;;
11197;SDS011;5655;48.744;9.162;2022-07-29T04:52:30;3.97;;;3.67;;
11197;SDS011;5655;48.744;9.162;2022-07-29T04:54:56;4.45;;;3.60;;
11197;SDS011;5655;48.744;9.162;2022-07-29T04:57:21;4.18;;;3.78;;
11197;SDS011;5655;48.744;9.162;2022-07-29T04:59:46;6.40;;;3.67;;
11197;SDS011;5655;48.744;9.162;2022-07-29T05:02:12;4.47;;;3.40;;
11197;SDS011;5655;48.744;9.162;2022-07-29T05:04:40;4.05;;;3.30;;
11197;SDS011;5655;48.744;9.162;2022-07-29T05:07:05;4.05;;;3.60;;
11197;SDS011;5655;48.744;9.162;2022-07-29T05:09:31;3.75;;;3.25;;
11197;SDS011;5655;48.744;9.162;2022-07-29T05:11:57;5.65;;;3.55;;
11197;SDS011;5655;48.744;9.162;2022-07-29T05:14:22;3.85;;;3.55;;
11197;SDS011;5655;48.744;9.162;2022-07-29T05:16:48;4.10;;;3.50;;
11197;SDS011;5655;48.744;9.162;2022-07-29T05:19:15;3.45;;;3.15;;
11197;SDS011;5655;48.744;9.162;2022-07-29T05:21:41;4.75;;;3.53;;
11197;SDS011;5655;48.744;9.162;2022-07-29T05:24:06;4.00;;;3.20;;
11197;SDS011;5655;48.744;9.162;2022-07-29T05:26:32;3.63;;;2.97;;
11197;SDS011;5655;48.744;9.162;2022-07-29T05:28:58;4.57;;;3.55;;
11197;SDS011;5655;48.744;9.162;2022-07-29T05:31:23;3.58;;;3.28;;
11197;SDS011;5655;48.744;9.162;2022-07-29T05:33:58;3.78;;;3.38;;
11197;SDS011;5655;48.744;9.162;2022-07-29T05:36:46;3.42;;;3.00;;
11197;SDS011;5655;48.744;9.162;2022-07-29T05:39:12;3.75;;;2.85;;
11197;SDS011;5655;48.744;9.162;2022-07-29T05:41:38;7.82;;;3.10;;
11197;SDS011;5655;48.744;9.162;2022-07-29T05:44:03;4.38;;;3.28;;
11197;SDS011;5655;48.744;9.162;2022-07-29T05:46:29;4.88;;;2.88;;
11197;SDS011;5655;48.744;9.162;2022-07-29T05:48:54;4.38;;;3.45;;
11197;SDS011;5655;48.744;9.162;2022-07-29T05:51:20;3.42;;;2.85;;
11197;SDS011;5655;48.744;9.162;2022-07-29T05:53:45;4.78;;;3.40;;
11197;SDS011;5655;48.744;9.162;2022-07-29T05:56:10;3.70;;;3.40;;
11197;SDS011;5655;48.744;9.162;2022-07-29T05:58:36;4.72;;;2.97;;
11197;SDS011;5655;48.744;9.162;2022-07-29T06:01:01;2.95;;;2.70;;
11197;SDS011;5655;48.744;9.162;2022-07-29T06:03:27;3.33;;;2.80;;
11197;SDS011;5655;48.744;9.162;2022-07-29T06:05:53;4.22;;;3.40;;
11197;SDS011;5655;48.744;9.162;2022-07-29T06:08:18;3.30;;;3.00;;
11197;SDS011;5655;48.744;9.162;2022-07-29T06:10:44;3.50;;;3.20;;
11197;SDS011;5655;48.744;9.162;2022-07-29T06:13:10;6.18;;;3.50;;
11197;SDS011;5655;48.744;9.162;2022-07-29T06:15:36;3.80;;;3.50;;
11197;SDS011;5655;48.744;9.162;2022-07-29T06:18:01;6.05;;;3.55;;
11197;SDS011;5655;48.744;9.162;2022-07-29T06:20:27;3.80;;;3.13;;
11197;SDS011;5655;48.744;9.162;2022-07-29T06:22:56;3.92;;;3.28;;
11197;SDS011;5655;48.744;9.162;2022-07-29T06:25:22;4.07;;;3.58;;
11197;SDS011;5655;48.744;9.162;2022-07-29T06:27:47;4.57;;;2.92;;
11197;SDS011;5655;48.744;9.162;2022-07-29T06:30:13;4.68;;;3.22;;
11197;SDS011;5655;48.744;9.162;2022-07-29T06:32:38;4.85;;;3.25;;
11197;SDS011;5655;48.744;9.162;2022-07-29T06:35:03;3.70;;;3.03;;
11197;SDS011;5655;48.744;9.162;2022-07-29T06:37:29;4.60;;;3.58;;
11197;SDS011;5655;48.744;9.162;2022-07-29T06:39:54;4.97;;;3.25;;
11197;SDS011;5655;48.744;9.162;2022-07-29T06:42:44;3.83;;;3.30;;
11197;SDS011;5655;48.744;9.162;2022-07-29T06:45:20;4.85;;;3.50;;
11197;SDS011;5655;48.744;9.162;2022-07-29T06:48:09;3.75;;;3.20;;
11197;SDS011;5655;48.744;9.162;2022-07-29T06:50:34;3.97;;;3.63;;
11197;SDS011;5655;48.744;9.162;2022-07-29T06:53:00;8.52;;;3.83;;
11197;SDS011;5655;48.744;9.162;2022-07-29T06:55:25;3.85;;;3.17;;
11197;SDS011;5655;48.744;9.162;2022-07-29T06:57:51;4.22;;;3.45;;
11197;SDS011;5655;48.744;9.162;2022-07-29T07:00:16;4.47;;;3.60;;
11197;SDS011;5655;48.744;9.162;2022-07-29T07:02:41;4.70;;;4.18;;
11197;SDS011;5655;48.744;9.162;2022-07-29T07:05:07;3.75;;;3.45;;
11197;SDS011;5655;48.744;9.162;2022-07-29T07:07:32;4.68;;;3.75;;
11197;SDS011;5655;48.744;9.162;2022-07-29T07:09:57;4.05;;;3.65;;
11197;SDS011;5655;48.744;9.162;2022-07-29T07:12:23;3.60;;;3.30;;
11197;SDS011;5655;48.744;9.162;2022-07-29T07:14:48;4.53;;;3.35;;
11197;SDS011;5655;48.744;9.162;2022-07-29T07:17:13;4.32;;;3.75;;
11197;SDS011;5655;48.744;9.162;2022-07-29T07:19:39;5.55;;;4.03;;
11197;SDS011;5655;48.744;9.162;2022-07-29T07:22:04;5.13;;;4.40;;
11197;SDS011;5655;48.744;9.162;2022-07-29T07:24:29;4.63;;;4.22;;
11197;SDS011;5655;48.744;9.162;2022-07-29T07:26:55;5.63;;;3.85;;
11197;SDS011;5655;48.744;9.162;2022-07-29T07:29:20;4.38;;;3.97;;
11197;SDS011;5655;48.744;9.162;2022-07-29T07:31:45;5.38;;;3.65;;
11197;SDS011;5655;48.744;9.162;2022-07-29T07:34:11;4.68;;;3.65;;
11197;SDS011;5655;48.744;9.162;2022-07-29T07:36:36;8.52;;;4.13;;
11197;SDS011;5655;48.744;9.162;2022-07-29T07:39:02;6.57;;;4.03;;
11197;SDS011;5655;48.744;9.162;2022-07-29T07:41:28;4.35;;;4.00;;
11197;SDS011;5655;48.744;9.162;2022-07-29T07:43:54;3.75;;;3.42;;
11197;SDS011;5655;48.744;9.162;2022-07-29T07:46:19;5.78;;;3.65;;
11197;SDS011;5655;48.744;9.162;2022-07-29T07:48:44;5.50;;;4.15;;
11197;SDS011;5655;48.744;9.162;2022-07-29T07:51:09;6.00;;;3.88;;
11197;SDS011;5655;48.744;9.162;2022-07-29T07:53:35;3.72;;;3.42;;
11197;SDS011;5655;48.744;9.162;2022-07-29T07:56:00;4.68;;;3.92;;
11197;SDS011;5655;48.744;9.162;2022-07-29T07:58:26;4.57;;;4.15;;
11197;SDS011;5655;48.744;9.162;2022-07-29T08:00:52;3.85;;;3.55;;
11197;SDS011;5655;48.744;9.162;2022-07-29T08:03:17;4.18;;;3.78;;
11197;SDS011;5655;48.744;9.162;2022-07-29T08:05:42;4.30;;;3.90;;
11197;SDS011;5655;48.744;9.162;2022-07-29T08:08:08;6.07;;;3.55;;
11197;SDS011;5655;48.744;9.162;2022-07-29T08:10:34;7.78;;;6.10;;
11197;SDS011;5655;48.744;9.162;2022-07-29T08:13:18;5.38;;;4.53;;
11197;SDS011;5655;48.744;9.162;2022-07-29T08:15:45;4.25;;;3.85;;
11197;SDS011;5655;48.744;9.162;2022-07-29T08:18:11;4.35;;;3.95;;
11197;SDS011;5655;48.744;9.162;2022-07-29T08:20:37;4.50;;;4.10;;
11197;SDS011;5655;48.744;9.162;2022-07-29T08:23:04;6.95;;;4.05;;
11197;SDS011;5655;48.744;9.162;2022-07-29T08:25:40;3.97;;;3.67;;
11197;SDS011;5655;48.744;9.162;2022-07-29T08:28:07;5.57;;;4.07;;
11197;SDS011;5655;48.744;9.162;2022-07-29T08:30:32;4.90;;;3.90;;
11197;SDS011;5655;48.744;9.162;2022-07-29T08:32:58;5.38;;;4.03;;
11197;SDS011;5655;48.744;9.162;2022-07-29T08:35:24;5.00;;;3.67;;
11197;SDS011;5655;48.744;9.162;2022-07-29T08:37:50;4.68;;;3.90;;
11197;SDS011;5655;48.744;9.162;2022-07-29T08:40:17;4.22;;;3.50;;
11197;SDS011;5655;48.744;9.162;2022-07-29T08:42:42;4.55;;;4.15;;
11197;SDS011;5655;48.744;9.162;2022-07-29T08:45:08;7.80;;;4.22;;
11197;SDS011;5655;48.744;9.162;2022-07-29T08:47:34;8.38;;;4.97;;
11197;SDS011;5655;48.744;9.162;2022-07-29T08:50:04;5.97;;;4.60;;
11197;SDS011;5655;48.744;9.162;2022-07-29T08:52:30;8.07;;;4.78;;
11197;SDS011;5655;48.744;9.162;2022-07-29T08:55:00;4.82;;;4.32;;
11197;SDS011;5655;48.744;9.162;2022-07-29T08:57:26;6.43;;;4.28;;
11197;SDS011;5655;48.744;9.162;2022-07-29T08:59:52;5.13;;;3.80;;
11197;SDS011;5655;48.744;9.162;2022-07-29T09:02:20;6.85;;;3.95;;
11197;SDS011;5655;48.744;9.162;2022-07-29T09:04:47;4.20;;;3.80;;
11197;SDS011;5655;48.744;9.162;2022-07-29T09:07:14;4.82;;;3.85;;
11197;SDS011;5655;48.744;9.162;2022-07-29T09:09:41;5.03;;;3.97;;
11197;SDS011;5655;48.744;9.162;2022-07-29T09:12:07;5.15;;;3.63;;
11197;SDS011;5655;48.744;9.162;2022-07-29T09:14:33;5.63;;;3.80;;
11197;SDS011;5655;48.744;9.162;2022-07-29T09:16:59;5.10;;;3.80;;
11197;SDS011;5655;48.744;9.162;2022-07-29T09:19:35;4.60;;;3.70;;
11197;SDS011;5655;48.744;9.162;2022-07-29T09:22:05;6.28;;;4.60;;
11197;SDS011;5655;48.744;9.162;2022-07-29T09:27:00;5.82;;;3.65;;
11197;SDS011;5655;48.744;9.162;2022-07-29T09:29:26;5.82;;;4.05;;
11197;SDS011;5655;48.744;9.162;2022-07-29T09:31:53;5.07;;;3.72;;
11197;SDS011;5655;48.744;9.162;2022-07-29T09:34:23;3.83;;;3.40;;
11197;SDS011;5655;48.744;9.162;2022-07-29T09:36:50;5.18;;;3.78;;
11197;SDS011;5655;48.744;9.162;2022-07-29T09:39:26;4.50;;;3.53;;
11197;SDS011;5655;48.744;9.162;2022-07-29T09:42:12;4.35;;;3.40;;
11197;SDS011;5655;48.744;9.162;2022-07-29T09:44:45;4.80;;;3.47;;
11197;SDS011;5655;48.744;9.162;2022-07-29T09:47:13;5.97;;;3.97;;
11197;SDS011;5655;48.744;9.162;2022-07-29T09:49:55;5.13;;;3.63;;
11197;SDS011;5655;48.744;9.162;2022-07-29T09:52:25;3.67;;;3.20;;
11197;SDS011;5655;48.744;9.162;2022-07-29T09:54:52;6.20;;;4.00;;
11197;SDS011;5655;48.744;9.162;2022-07-29T09:57:26;4.82;;;3.78;;
11197;SDS011;5655;48.744;9.162;2022-07-29T09:59:56;4.10;;;3.70;;
11197;SDS011;5655;48.744;9.162;2022-07-29T10:02:34;5.47;;;3.53;;
11197;SDS011;5655;48.744;9.162;2022-07-29T10:05:02;5.72;;;3.83;;
11197;SDS011;5655;48.744;9.162;2022-07-29T10:07:45;4.90;;;3.70;;
11197;SDS011;5655;48.744;9.162;2022-07-29T10:10:31;5.28;;;4.15;;
11197;SDS011;5655;48.744;9.162;2022-07-29T10:13:02;5.55;;;3.53;;
11197;SDS011;5655;48.744;9.162;2022-07-29T10:15:30;4.90;;;4.25;;
11197;SDS011;5655;48.744;9.162;2022-07-29T10:17:58;4.97;;;3.55;;
11197;SDS011;5655;48.744;9.162;2022-07-29T10:20:24;5.70;;;3.80;;
11197;SDS011;5655;48.744;9.162;2022-07-29T10:22:51;3.80;;;3.50;;
11197;SDS011;5655;48.744;9.162;2022-07-29T10:25:17;6.07;;;3.92;;
11197;SDS011;5655;48.744;9.162;2022-07-29T10:27:46;4.57;;;4.00;;
11197;SDS011;5655;48.744;9.162;2022-07-29T10:30:13;4.00;;;3.45;;
11197;SDS011;5655;48.744;9.162;2022-07-29T10:32:52;4.68;;;3.80;;
11197;SDS011;5655;48.744;9.162;2022-07-29T10:38:30;4.85;;;3.95;;
11197;SDS011;5655;48.744;9.162;2022-07-29T10:43:51;4.95;;;3.92;;
11197;SDS011;5655;48.744;9.162;2022-07-29T10:46:39;6.53;;;5.10;;
11197;SDS011;5655;48.744;9.162;2022-07-29T10:49:12;8.65;;;4.80;;
11197;SDS011;5655;48.744;9.162;2022-07-29T10:54:47;13.23;;;5.47;;
11197;SDS011;5655;48.744;9.162;2022-07-29T11:05:07;10.02;;;6.75;;
11197;SDS011;5655;48.744;9.162;2022-07-29T11:07:35;8.80;;;6.80;;
11197;SDS011;5655;48.744;9.162;2022-07-29T11:15:02;11.05;;;6.55;;
11197;SDS011;5655;48.744;9.162;2022-07-29T11:28:39;11.25;;;7.82;;
11197;SDS011;5655;48.744;9.162;2022-07-29T11:31:16;9.75;;;7.88;;
11197;SDS011;5655;48.744;9.162;2022-07-29T11:33:44;8.68;;;7.78;;
11197;SDS011;5655;48.744;9.162;2022-07-29T11:36:10;8.40;;;7.13;;
11197;SDS011;5655;48.744;9.162;2022-07-29T11:38:37;9.35;;;7.18;;
11197;SDS011;5655;48.744;9.162;2022-07-29T11:43:48;10.13;;;7.18;;
11197;SDS011;5655;48.744;9.162;2022-07-29T11:46:16;8.15;;;7.35;;
11197;SDS011;5655;48.744;9.162;2022-07-29T11:49:03;10.10;;;7.63;;
11197;SDS011;5655;48.744;9.162;2022-07-29T11:51:29;8.73;;;7.38;;
11197;SDS011;5655;48.744;9.162;2022-07-29T11:53:55;11.02;;;6.88;;
11197;SDS011;5655;48.744;9.162;2022-07-29T11:56:21;6.43;;;5.80;;
11197;SDS011;5655;48.744;9.162;2022-07-29T11:59:00;6.35;;;5.50;;
11197;SDS011;5655;48.744;9.162;2022-07-29T12:01:28;7.05;;;5.07;;
11197;SDS011;5655;48.744;9.162;2022-07-29T12:04:01;8.70;;;5.32;;
11197;SDS011;5655;48.744;9.162;2022-07-29T12:06:28;5.40;;;4.90;;
11197;SDS011;5655;48.744;9.162;2022-07-29T12:08:54;5.85;;;5.18;;
11197;SDS011;5655;48.744;9.162;2022-07-29T12:11:20;5.68;;;4.78;;
11197;SDS011;5655;48.744;9.162;2022-07-29T12:13:45;5.80;;;5.22;;
11197;SDS011;5655;48.744;9.162;2022-07-29T12:16:11;5.68;;;5.03;;
11197;SDS011;5655;48.744;9.162;2022-07-29T12:18:36;6.90;;;5.53;;
11197;SDS011;5655;48.744;9.162;2022-07-29T12:21:02;8.02;;;5.03;;
11197;SDS011;5655;48.744;9.162;2022-07-29T12:23:31;4.95;;;4.53;;
11197;SDS011;5655;48.744;9.162;2022-07-29T12:25:57;6.85;;;4.40;;
11197;SDS011;5655;48.744;9.162;2022-07-29T12:28:23;8.45;;;5.20;;
11197;SDS011;5655;48.744;9.162;2022-07-29T12:30:49;5.97;;;4.45;;
11197;SDS011;5655;48.744;9.162;2022-07-29T12:35:59;7.80;;;5.00;;
11197;SDS011;5655;48.744;9.162;2022-07-29T12:38:26;6.68;;;4.47;;
11197;SDS011;5655;48.744;9.162;2022-07-29T12:40:52;7.53;;;4.47;;
11197;SDS011;5655;48.744;9.162;2022-07-29T12:43:20;8.43;;;4.40;;
11197;SDS011;5655;48.744;9.162;2022-07-29T12:45:47;5.43;;;4.38;;
11197;SDS011;5655;48.744;9.162;2022-07-29T12:48:14;4.78;;;4.07;;
11197;SDS011;5655;48.744;9.162;2022-07-29T12:50:53;4.90;;;4.30;;
11197;SDS011;5655;48.744;9.162;2022-07-29T12:53:24;5.47;;;4.30;;
11197;SDS011;5655;48.744;9.162;2022-07-29T12:55:51;7.03;;;5.82;;
11197;SDS011;5655;48.744;9.162;2022-07-29T12:58:28;6.68;;;4.30;;
11197;SDS011;5655;48.744;9.162;2022-07-29T13:06:27;5.90;;;4.70;;
11197;SDS011;5655;48.744;9.162;2022-07-29T13:08:59;6.65;;;4.72;;
11197;SDS011;5655;48.744;9.162;2022-07-29T13:11:30;6.53;;;4.63;;
11197;SDS011;5655;48.744;9.162;2022-07-29T13:13:57;7.43;;;5.68;;
11197;SDS011;5655;48.744;9.162;2022-07-29T13:16:23;10.85;;;6.78;;
11197;SDS011;5655;48.744;9.162;2022-07-29T13:18:48;9.98;;;7.03;;
11197;SDS011;5655;48.744;9.162;2022-07-29T13:21:27;10.20;;;7.80;;
11197;SDS011;5655;48.744;9.162;2022-07-29T13:23:52;8.95;;;6.90;;
11197;SDS011;5655;48.744;9.162;2022-07-29T13:26:17;10.32;;;7.55;;
11197;SDS011;5655;48.744;9.162;2022-07-29T13:28:44;9.73;;;7.32;;
11197;SDS011;5655;48.744;9.162;2022-07-29T13:31:10;8.32;;;6.90;;
11197;SDS011;5655;48.744;9.162;2022-07-29T13:33:36;8.55;;;7.70;;
11197;SDS011;5655;48.744;9.162;2022-07-29T13:36:01;10.68;;;8.32;;
11197;SDS011;5655;48.744;9.162;2022-07-29T13:38:26;10.97;;;9.73;;
11197;SDS011;5655;48.744;9.162;2022-07-29T13:40:52;10.57;;;9.48;;
11197;SDS011;5655;48.744;9.162;2022-07-29T13:43:17;11.70;;;9.18;;
11197;SDS011;5655;48.744;9.162;2022-07-29T13:45:42;8.65;;;7.80;;
11197;SDS011;5655;48.744;9.162;2022-07-29T13:48:08;8.90;;;7.15;;
11197;SDS011;5655;48.744;9.162;2022-07-29T13:50:33;9.32;;;7.80;;
11197;SDS011;5655;48.744;9.162;2022-07-29T13:52:59;9.18;;;8.25;;
11197;SDS011;5655;48.744;9.162;2022-07-29T13:55:24;10.18;;;9.10;;
11197;SDS011;5655;48.744;9.162;2022-07-29T13:57:49;10.93;;;8.48;;
11197;SDS011;5655;48.744;9.162;2022-07-29T14:00:15;10.20;;;8.38;;
11197;SDS011;5655;48.744;9.162;2022-07-29T14:02:41;9.30;;;8.40;;
11197;SDS011;5655;48.744;9.162;2022-07-29T14:05:07;11.93;;;9.23;;
11197;SDS011;5655;48.744;9.162;2022-07-29T14:07:35;12.32;;;9.68;;
11197;SDS011;5655;48.744;9.162;2022-07-29T14:10:01;10.98;;;9.88;;
11197;SDS011;5655;48.744;9.162;2022-07-29T14:12:26;10.10;;;9.13;;
11197;SDS011;5655;48.744;9.162;2022-07-29T14:14:51;10.13;;;8.90;;
11197;SDS011;5655;48.744;9.162;2022-07-29T14:17:17;15.05;;;9.57;;
11197;SDS011;5655;48.744;9.162;2022-07-29T14:19:42;10.05;;;8.95;;
11197;SDS011;5655;48.744;9.162;2022-07-29T14:22:08;10.57;;;9.23;;
11197;SDS011;5655;48.744;9.162;2022-07-29T14:24:34;10.13;;;9.10;;
11197;SDS011;5655;48.744;9.162;2022-07-29T14:27:00;10.52;;;9.07;;
11197;SDS011;5655;48.744;9.162;2022-07-29T14:29:26;10.95;;;8.70;;
11197;SDS011;5655;48.744;9.162;2022-07-29T14:31:51;12.55;;;9.35;;
11197;SDS011;5655;48.744;9.162;2022-07-29T14:34:17;11.25;;;8.80;;
11197;SDS011;5655;48.744;9.162;2022-07-29T14:36:42;12.30;;;8.65;;
11197;SDS011;5655;48.744;9.162;2022-07-29T14:39:07;10.15;;;7.68;;
11197;SDS011;5655;48.744;9.162;2022-07-29T14:41:33;9.98;;;8.98;;
11197;SDS011;5655;48.744;9.162;2022-07-29T14:43:58;10.20;;;9.13;;
11197;SDS011;5655;48.744;9.162;2022-07-29T14:46:27;10.50;;;8.88;;
11197;SDS011;5655;48.744;9.162;2022-07-29T14:48:52;10.00;;;9.02;;
11197;SDS011;5655;48.744;9.162;2022-07-29T14:51:18;8.82;;;7.78;;
11197;SDS011;5655;48.744;9.162;2022-07-29T14:53:43;10.43;;;8.77;;
11197;SDS011;5655;48.744;9.162;2022-07-29T14:56:08;11.00;;;9.82;;
11197;SDS011;5655;48.744;9.162;2022-07-29T14:58:34;12.73;;;11.38;;
11197;SDS011;5655;48.744;9.162;2022-07-29T15:00:59;13.82;;;9.98;;
11197;SDS011;5655;48.744;9.162;2022-07-29T15:03:26;18.50;;;12.65;;
11197;SDS011;5655;48.744;9.162;2022-07-29T15:05:52;31.08;;;18.75;;
11197;SDS011;5655;48.744;9.162;2022-07-29T15:08:18;29.00;;;20.30;;
11197;SDS011;5655;48.744;9.162;2022-07-29T15:10:43;15.45;;;12.25;;
11197;SDS011;5655;48.744;9.162;2022-07-29T15:13:09;11.93;;;9.13;;
11197;SDS011;5655;48.744;9.162;2022-07-29T15:15:34;12.82;;;9.43;;
11197;SDS011;5655;48.744;9.162;2022-07-29T15:17:59;11.57;;;8.88;;
11197;SDS011;5655;48.744;9.162;2022-07-29T15:20:25;17.45;;;9.48;;
11197;SDS011;5655;48.744;9.162;2022-07-29T15:22:51;13.15;;;9.82;;
11197;SDS011;5655;48.744;9.162;2022-07-29T15:25:17;11.38;;;8.82;;
11197;SDS011;5655;48.744;9.162;2022-07-29T15:27:44;10.52;;;9.43;;
11197;SDS011;5655;48.744;9.162;2022-07-29T15:30:09;11.45;;;9.10;;
11197;SDS011;5655;48.744;9.162;2022-07-29T15:32:35;12.77;;;9.70;;
11197;SDS011;5655;48.744;9.162;2022-07-29T15:35:01;11.05;;;9.73;;
11197;SDS011;5655;48.744;9.162;2022-07-29T15:37:26;10.85;;;9.75;;
11197;SDS011;5655;48.744;9.162;2022-07-29T15:39:53;11.60;;;9.45;;
11197;SDS011;5655;48.744;9.162;2022-07-29T15:42:18;11.98;;;9.70;;
11197;SDS011;5655;48.744;9.162;2022-07-29T15:44:44;12.05;;;10.32;;
11197;SDS011;5655;48.744;9.162;2022-07-29T15:47:09;13.38;;;10.15;;
11197;SDS011;5655;48.744;9.162;2022-07-29T15:49:36;11.95;;;9.85;;
11197;SDS011;5655;48.744;9.162;2022-07-29T15:52:04;16.65;;;9.93;;
11197;SDS011;5655;48.744;9.162;2022-07-29T15:54:32;8.68;;;7.88;;
11197;SDS011;5655;48.744;9.162;2022-07-29T15:56:58;8.25;;;7.45;;
11197;SDS011;5655;48.744;9.162;2022-07-29T15:59:25;9.93;;;8.93;;
11197;SDS011;5655;48.744;9.162;2022-07-29T16:01:50;9.73;;;8.13;;
11197;SDS011;5655;48.744;9.162;2022-07-29T16:04:16;9.52;;;7.90;;
11197;SDS011;5655;48.744;9.162;2022-07-29T16:06:42;9.70;;;8.70;;